Main page
METAR-TAF:

METAR-TAF

Airports :

Limoges, France

Limoges – Bellegarde Airport

latitude: 45-52N, longitude: 001-11E, elevation: 396 m

Current weather observation

The report was made 10 minutes ago, at 19:00 UTC
Wind 2 kt from the West
Temperature 16°C
Humidity 72%
Pressure 1020 hPa
Visibility 10 km or more
no clouds below 1500 m and no cumulonimbus

METAR: LFBL 231900Z AUTO 28002KT CAVOK 16/11 Q1020 NOSIG

Time: 21:10 (19:10 UTC)

Forecast

The report was made 2 hours and 10 minutes ago, at 17:00 UTC
Forecast valid from 23 at 18 UTC to 24 at 18 UTC
Wind 5 kt from the West
Visibility 10 km or more
no clouds below 1500 m and no cumulonimbus

TAF: LFBL 231700Z 2318/2418 27005KT CAVOK

Weather observations and forecasts of more than 4000 airports (METAR and TAF reports).

The available stations are represented by yellow and red dots on the map.

Hover mouse over dot to see the name of the station.

Then click to see weather observations and forecasts.

To change the map : click on the green buttons with a black cross to zoom in, on the green button with a dash to zoom out, or on the green arrows for adjacent maps.


METAR-TAF: